Time;durP1;ratioP1;P1;durP2;ratioP2;P2;SDS_P1;SDS_P2;PMS_P1;PMS_P2;Temp;Humidity;BMP_temperature;BMP_pressure;BME280_temperature;BME280_humidity;BME280_pressure;Samples;Min_cycle;Max_cycle;Signal;HPM_P1;HPM_P2
2024/03/06 00:01:53;;;;;;;2.00;1.00;;;;;;;;;;5080147;28;20029;-60
2024/03/06 00:04:19;;;;;;;5.07;1.00;;;;;;;;;;5077142;28;20024;-58
2024/03/06 00:06:44;;;;;;;2.00;0.90;;;;;;;;;;5078510;28;20039;-60
2024/03/06 00:09:09;;;;;;;2.13;1.00;;;;;;;;;;5077730;28;20131;-59
2024/03/06 00:11:37;;;;;;;3.60;1.00;;;;;;;;;;5089804;28;20057;-59
2024/03/06 00:14:05;;;;;;;3.00;1.10;;;;;;;;;;5088626;28;20081;-61
2024/03/06 00:16:31;;;;;;;2.65;0.95;;;;;;;;;;5075102;28;20476;-55
2024/03/06 00:18:56;;;;;;;1.75;0.80;;;;;;;;;;5080046;28;20032;-55
2024/03/06 00:21:21;;;;;;;2.13;0.90;;;;;;;;;;5084447;28;20613;-52
2024/03/06 00:23:47;;;;;;;1.88;0.80;;;;;;;;;;5085354;28;20060;-53
2024/03/06 00:26:12;;;;;;;3.25;1.00;;;;;;;;;;5084600;28;20100;-51
2024/03/06 00:28:38;;;;;;;2.15;0.95;;;;;;;;;;5079272;28;20059;-54
2024/03/06 00:31:05;;;;;;;2.30;1.13;;;;;;;;;;5075988;28;20119;-53
2024/03/06 00:33:30;;;;;;;2.40;0.98;;;;;;;;;;5078835;28;20044;-54
2024/03/06 00:35:56;;;;;;;2.17;0.90;;;;;;;;;;5078024;28;20040;-54
2024/03/06 00:38:21;;;;;;;2.88;1.20;;;;;;;;;;5087336;28;20090;-51
2024/03/06 00:40:46;;;;;;;1.58;0.85;;;;;;;;;;5089434;28;20040;-52
2024/03/06 00:43:12;;;;;;;1.92;1.00;;;;;;;;;;5091905;28;20036;-52
2024/03/06 00:45:37;;;;;;;2.75;1.10;;;;;;;;;;5073801;28;20487;-52
2024/03/06 00:48:03;;;;;;;2.45;1.00;;;;;;;;;;5077734;28;20044;-55
2024/03/06 00:50:28;;;;;;;2.90;0.90;;;;;;;;;;5074248;28;20495;-49
2024/03/06 00:52:54;;;;;;;1.67;0.90;;;;;;;;;;5075288;28;20044;-53
2024/03/06 00:55:19;;;;;;;1.98;0.85;;;;;;;;;;5080658;28;20032;-55
2024/03/06 00:57:44;;;;;;;3.53;1.02;;;;;;;;;;5087547;28;20039;-55
2024/03/06 01:00:10;;;;;;;2.65;1.10;;;;;;;;;;5077898;28;20048;-51
2024/03/06 01:02:40;;;;;;;3.55;1.05;;;;;;;;;;5088303;28;20032;-51
2024/03/06 01:05:06;;;;;;;1.60;0.82;;;;;;;;;;5072376;28;20094;-51
2024/03/06 01:07:31;;;;;;;2.83;0.90;;;;;;;;;;5079245;28;20064;-54
2024/03/06 01:09:57;;;;;;;2.78;1.10;;;;;;;;;;5084014;28;20055;-53
2024/03/06 01:12:23;;;;;;;2.15;0.90;;;;;;;;;;5089886;28;20494;-55
2024/03/06 01:14:48;;;;;;;2.50;0.98;;;;;;;;;;5078835;28;20040;-51
2024/03/06 01:17:14;;;;;;;1.27;0.70;;;;;;;;;;5087505;28;20039;-50
2024/03/06 01:19:39;;;;;;;1.98;0.90;;;;;;;;;;5075418;28;20055;-54
2024/03/06 01:22:04;;;;;;;1.70;0.82;;;;;;;;;;5082074;28;20029;-54
2024/03/06 01:24:30;;;;;;;1.65;0.90;;;;;;;;;;5079904;28;20028;-52
2024/03/06 01:26:55;;;;;;;2.08;1.00;;;;;;;;;;5079519;28;20039;-50
2024/03/06 01:29:20;;;;;;;2.00;0.85;;;;;;;;;;5075856;28;20045;-55
2024/03/06 01:31:46;;;;;;;2.00;1.00;;;;;;;;;;5075087;28;20032;-51
2024/03/06 01:34:12;;;;;;;2.30;0.95;;;;;;;;;;5072171;28;20087;-54
2024/03/06 01:36:37;;;;;;;1.63;0.90;;;;;;;;;;5080200;28;20040;-51
2024/03/06 01:39:03;;;;;;;1.70;0.80;;;;;;;;;;5078167;28;20460;-55
2024/03/06 01:41:28;;;;;;;1.63;0.90;;;;;;;;;;5082950;28;20085;-51
2024/03/06 01:43:53;;;;;;;1.70;0.90;;;;;;;;;;5074150;28;20618;-52
2024/03/06 01:46:19;;;;;;;1.77;0.82;;;;;;;;;;5070834;28;20036;-55
2024/03/06 01:48:44;;;;;;;1.65;0.90;;;;;;;;;;5070519;28;20033;-59
2024/03/06 01:51:10;;;;;;;2.63;0.90;;;;;;;;;;5070326;28;20457;-58
2024/03/06 01:53:35;;;;;;;2.58;0.88;;;;;;;;;;5080468;28;19911;-58
2024/03/06 01:56:03;;;;;;;2.15;1.00;;;;;;;;;;5073296;28;20517;-60
2024/03/06 01:58:30;;;;;;;2.13;0.70;;;;;;;;;;5081352;28;20130;-59
2024/03/06 02:00:57;;;;;;;1.75;0.95;;;;;;;;;;5072618;28;20115;-59
2024/03/06 02:03:22;;;;;;;2.30;0.80;;;;;;;;;;5073316;28;20036;-58
2024/03/06 02:05:52;;;;;;;4.93;1.00;;;;;;;;;;5071739;28;20178;-60
2024/03/06 02:08:17;;;;;;;2.08;1.00;;;;;;;;;;5077383;28;20043;-51
2024/03/06 02:10:44;;;;;;;2.20;0.80;;;;;;;;;;5080085;28;20044;-53
2024/03/06 02:13:09;;;;;;;1.40;0.70;;;;;;;;;;5084068;28;20475;-53
2024/03/06 02:15:35;;;;;;;3.55;0.93;;;;;;;;;;5073746;28;20044;-53
2024/03/06 02:18:04;;;;;;;2.50;1.00;;;;;;;;;;5083483;28;20047;-51
2024/03/06 02:20:30;;;;;;;1.98;1.20;;;;;;;;;;5084989;28;20394;-53
2024/03/06 02:22:55;;;;;;;1.55;0.80;;;;;;;;;;5081589;28;20115;-49
2024/03/06 02:25:21;;;;;;;2.70;0.98;;;;;;;;;;5084468;28;20116;-49
2024/03/06 02:27:48;;;;;;;1.70;0.80;;;;;;;;;;5076108;28;20033;-50
2024/03/06 02:30:13;;;;;;;2.60;0.80;;;;;;;;;;5078317;28;20085;-52
2024/03/06 02:32:39;;;;;;;2.75;0.80;;;;;;;;;;5079278;28;20040;-54
2024/03/06 02:35:08;;;;;;;2.70;0.85;;;;;;;;;;5074602;28;20036;-50
2024/03/06 02:37:33;;;;;;;1.58;0.82;;;;;;;;;;5077039;28;20598;-55
2024/03/06 02:39:59;;;;;;;2.13;0.68;;;;;;;;;;5073033;28;20120;-54
2024/03/06 02:42:24;;;;;;;2.00;0.90;;;;;;;;;;5072303;28;20479;-52
2024/03/06 02:44:50;;;;;;;1.60;0.80;;;;;;;;;;5076849;28;20028;-50
2024/03/06 02:47:15;;;;;;;2.05;0.80;;;;;;;;;;5072311;28;20519;-52
2024/03/06 02:49:40;;;;;;;2.35;0.93;;;;;;;;;;5075256;28;20472;-51
2024/03/06 02:52:06;;;;;;;2.38;0.80;;;;;;;;;;5073884;28;20063;-54
2024/03/06 02:54:31;;;;;;;1.23;0.70;;;;;;;;;;5076699;28;20494;-52
2024/03/06 02:56:57;;;;;;;1.45;0.65;;;;;;;;;;5078039;28;20093;-49
2024/03/06 02:59:22;;;;;;;1.45;0.73;;;;;;;;;;5080219;28;20547;-53
2024/03/06 03:01:48;;;;;;;1.67;0.80;;;;;;;;;;5077750;28;20040;-50
2024/03/06 03:04:13;;;;;;;1.60;0.75;;;;;;;;;;5086361;28;20036;-54
2024/03/06 03:06:38;;;;;;;1.42;0.70;;;;;;;;;;5074539;28;20475;-53
2024/03/06 03:09:04;;;;;;;1.90;0.70;;;;;;;;;;5082222;28;20543;-54
2024/03/06 03:11:30;;;;;;;1.40;0.77;;;;;;;;;;5087701;28;20082;-53
2024/03/06 03:13:55;;;;;;;2.03;0.70;;;;;;;;;;5082219;28;20063;-53
2024/03/06 03:16:20;;;;;;;2.47;0.80;;;;;;;;;;5072240;28;20069;-49
2024/03/06 03:18:46;;;;;;;1.05;0.65;;;;;;;;;;5075294;28;20044;-54
2024/03/06 03:21:12;;;;;;;1.92;0.80;;;;;;;;;;5069977;28;20040;-50
2024/03/06 03:23:39;;;;;;;1.45;0.70;;;;;;;;;;5077160;28;20407;-49
2024/03/06 03:26:05;;;;;;;2.47;0.60;;;;;;;;;;5076247;28;20044;-53
2024/03/06 03:28:31;;;;;;;1.15;0.60;;;;;;;;;;5078959;28;20106;-52
2024/03/06 03:30:56;;;;;;;1.27;0.77;;;;;;;;;;5080410;28;20040;-51
2024/03/06 03:33:22;;;;;;;1.10;0.65;;;;;;;;;;5070158;28;20040;-52
2024/03/06 03:35:48;;;;;;;1.50;0.70;;;;;;;;;;5074444;28;20194;-53
2024/03/06 03:38:13;;;;;;;1.42;0.80;;;;;;;;;;5075570;28;20036;-52
2024/03/06 03:40:38;;;;;;;2.95;0.80;;;;;;;;;;5083646;28;20085;-52
2024/03/06 03:43:06;;;;;;;1.30;0.77;;;;;;;;;;5078916;28;20044;-49
2024/03/06 03:45:33;;;;;;;1.17;0.60;;;;;;;;;;5074007;28;20052;-53
2024/03/06 03:47:59;;;;;;;1.63;0.95;;;;;;;;;;5073072;28;20044;-51
2024/03/06 03:50:25;;;;;;;1.45;0.68;;;;;;;;;;5074297;28;20039;-51
2024/03/06 03:52:50;;;;;;;1.27;0.70;;;;;;;;;;5070381;28;20044;-50
2024/03/06 03:55:15;;;;;;;1.13;0.70;;;;;;;;;;5079914;28;20036;-51
2024/03/06 03:57:41;;;;;;;0.75;0.50;;;;;;;;;;5084740;28;20553;-52
2024/03/06 04:00:10;;;;;;;1.17;0.70;;;;;;;;;;5082619;28;20055;-54
2024/03/06 04:02:36;;;;;;;1.27;0.60;;;;;;;;;;5072092;28;20040;-52
2024/03/06 04:05:02;;;;;;;3.10;0.80;;;;;;;;;;5081544;28;20053;-54
2024/03/06 04:07:27;;;;;;;1.60;0.85;;;;;;;;;;5070269;28;20040;-49
2024/03/06 04:09:53;;;;;;;1.02;0.60;;;;;;;;;;5077667;28;20059;-52
2024/03/06 04:12:18;;;;;;;1.15;0.65;;;;;;;;;;5079151;28;20032;-49
2024/03/06 04:14:43;;;;;;;0.90;0.60;;;;;;;;;;5084133;28;20039;-51
2024/03/06 04:17:09;;;;;;;1.55;0.70;;;;;;;;;;5072425;28;20125;-52
2024/03/06 04:19:34;;;;;;;1.85;0.60;;;;;;;;;;5074636;28;20046;-51
2024/03/06 04:22:00;;;;;;;1.20;0.65;;;;;;;;;;5082446;28;20036;-54
2024/03/06 04:24:26;;;;;;;2.28;0.60;;;;;;;;;;5087400;28;20040;-53
2024/03/06 04:26:51;;;;;;;1.50;0.80;;;;;;;;;;5086266;28;20107;-51
2024/03/06 04:29:17;;;;;;;1.38;0.77;;;;;;;;;;5088637;28;20115;-52
2024/03/06 04:31:42;;;;;;;0.88;0.50;;;;;;;;;;5078224;28;20072;-51
2024/03/06 04:34:08;;;;;;;0.77;0.60;;;;;;;;;;5084781;28;20039;-53
2024/03/06 04:36:33;;;;;;;2.08;0.70;;;;;;;;;;5078958;28;20048;-53
2024/03/06 04:38:58;;;;;;;1.33;0.60;;;;;;;;;;5087048;28;20044;-53
2024/03/06 04:41:24;;;;;;;1.20;0.70;;;;;;;;;;5082780;28;20040;-52
2024/03/06 04:43:52;;;;;;;0.70;0.45;;;;;;;;;;5090690;28;20028;-49
2024/03/06 04:46:18;;;;;;;1.20;0.70;;;;;;;;;;5081833;28;20044;-53
2024/03/06 04:48:44;;;;;;;1.10;0.60;;;;;;;;;;5081158;28;20043;-53
2024/03/06 04:51:09;;;;;;;1.05;0.60;;;;;;;;;;5076801;28;20434;-51
2024/03/06 04:53:35;;;;;;;0.93;0.47;;;;;;;;;;5081692;28;20032;-52
2024/03/06 04:56:00;;;;;;;0.93;0.52;;;;;;;;;;5077240;28;20055;-52
2024/03/06 04:58:26;;;;;;;0.93;0.52;;;;;;;;;;5081785;28;20458;-52
2024/03/06 05:00:51;;;;;;;1.33;0.60;;;;;;;;;;5082357;28;20189;-48
2024/03/06 05:03:16;;;;;;;1.38;0.73;;;;;;;;;;5081496;28;20403;-53
2024/03/06 05:05:42;;;;;;;2.25;0.70;;;;;;;;;;5077600;28;20044;-54
2024/03/06 05:08:07;;;;;;;0.77;0.60;;;;;;;;;;5077667;28;20035;-53
2024/03/06 05:10:32;;;;;;;1.42;0.73;;;;;;;;;;5080344;28;20036;-54
2024/03/06 05:12:58;;;;;;;2.85;0.70;;;;;;;;;;5081110;28;20119;-51
2024/03/06 05:15:23;;;;;;;0.70;0.50;;;;;;;;;;5081210;28;20068;-52
2024/03/06 05:17:48;;;;;;;1.55;0.60;;;;;;;;;;5075094;28;20036;-49
2024/03/06 05:20:14;;;;;;;1.20;0.60;;;;;;;;;;5076002;28;20032;-49
2024/03/06 05:22:39;;;;;;;1.02;0.60;;;;;;;;;;5074930;28;20036;-55
2024/03/06 05:25:05;;;;;;;0.47;0.45;;;;;;;;;;5071945;28;20036;-53
2024/03/06 05:27:31;;;;;;;1.90;0.60;;;;;;;;;;5076275;28;20054;-52
2024/03/06 05:29:57;;;;;;;1.15;0.63;;;;;;;;;;5082250;28;20384;-52
2024/03/06 05:32:22;;;;;;;0.55;0.50;;;;;;;;;;5072138;28;20103;-55
2024/03/06 05:34:48;;;;;;;1.23;0.60;;;;;;;;;;5085725;28;20048;-52
2024/03/06 05:37:13;;;;;;;1.05;0.60;;;;;;;;;;5081887;28;20122;-51
2024/03/06 05:39:39;;;;;;;0.75;0.50;;;;;;;;;;5075749;28;20077;-53
2024/03/06 05:42:05;;;;;;;0.88;0.52;;;;;;;;;;5077125;28;20093;-51
2024/03/06 05:44:33;;;;;;;0.47;0.40;;;;;;;;;;5078026;28;20118;-50
2024/03/06 05:47:00;;;;;;;1.20;0.60;;;;;;;;;;5078386;28;20686;-53
2024/03/06 05:49:26;;;;;;;1.05;0.57;;;;;;;;;;5069009;28;20058;-54
2024/03/06 05:51:52;;;;;;;1.30;0.70;;;;;;;;;;5076041;28;20033;-53
2024/03/06 05:54:19;;;;;;;1.45;0.60;;;;;;;;;;5075275;28;20689;-51
2024/03/06 05:56:44;;;;;;;1.25;0.70;;;;;;;;;;5084293;28;20513;-51
2024/03/06 05:59:09;;;;;;;0.90;0.47;;;;;;;;;;5075455;28;20041;-52
2024/03/06 06:01:35;;;;;;;1.33;0.60;;;;;;;;;;5074105;28;20035;-53
2024/03/06 06:04:01;;;;;;;1.48;0.70;;;;;;;;;;5079978;28;20074;-49
2024/03/06 06:06:26;;;;;;;1.92;0.70;;;;;;;;;;5079052;28;20163;-50
2024/03/06 06:08:51;;;;;;;1.15;0.60;;;;;;;;;;5084565;28;20517;-50
2024/03/06 06:11:17;;;;;;;1.10;0.60;;;;;;;;;;5086402;28;20032;-53
2024/03/06 06:13:42;;;;;;;1.33;0.60;;;;;;;;;;5090669;28;20052;-54
2024/03/06 06:16:08;;;;;;;1.40;0.70;;;;;;;;;;5085221;28;20025;-51
2024/03/06 06:18:33;;;;;;;1.13;0.50;;;;;;;;;;5082858;28;20423;-51
2024/03/06 06:20:58;;;;;;;2.40;0.57;;;;;;;;;;5082189;28;20150;-50
2024/03/06 06:23:24;;;;;;;0.98;0.55;;;;;;;;;;5081927;28;20036;-51
2024/03/06 06:25:50;;;;;;;1.45;0.70;;;;;;;;;;5077070;28;20559;-53
2024/03/06 06:28:15;;;;;;;0.88;0.60;;;;;;;;;;5081355;28;20473;-53
2024/03/06 06:30:41;;;;;;;1.58;0.70;;;;;;;;;;5073377;28;20115;-52
2024/03/06 06:33:07;;;;;;;1.63;0.65;;;;;;;;;;5081414;28;20043;-53
2024/03/06 06:35:33;;;;;;;0.70;0.50;;;;;;;;;;5077594;28;20047;-52
2024/03/06 06:37:59;;;;;;;0.95;0.60;;;;;;;;;;5085500;28;20158;-50
2024/03/06 06:40:25;;;;;;;1.85;0.75;;;;;;;;;;5079069;28;20443;-52
2024/03/06 06:42:50;;;;;;;1.27;0.60;;;;;;;;;;5079457;28;20102;-53
2024/03/06 06:45:17;;;;;;;0.95;0.60;;;;;;;;;;5079224;28;20035;-53
2024/03/06 06:47:43;;;;;;;0.90;0.50;;;;;;;;;;5080917;28;20040;-53
2024/03/06 06:50:09;;;;;;;1.17;0.60;;;;;;;;;;5088348;28;20043;-51
2024/03/06 06:52:35;;;;;;;1.10;0.55;;;;;;;;;;5078273;28;20032;-52
2024/03/06 06:55:00;;;;;;;4.00;0.80;;;;;;;;;;5081604;28;20040;-49
2024/03/06 06:57:26;;;;;;;1.10;0.50;;;;;;;;;;5079182;28;20094;-54
2024/03/06 06:59:52;;;;;;;1.40;0.65;;;;;;;;;;5086618;28;20638;-49
2024/03/06 07:02:17;;;;;;;1.40;0.60;;;;;;;;;;5066204;28;20086;-51
2024/03/06 07:04:43;;;;;;;0.75;0.50;;;;;;;;;;5057568;28;20040;-54
2024/03/06 07:07:08;;;;;;;1.05;0.55;;;;;;;;;;5070854;28;20033;-52
2024/03/06 07:09:34;;;;;;;1.10;0.55;;;;;;;;;;5071777;28;20040;-57
2024/03/06 07:12:00;;;;;;;1.17;0.60;;;;;;;;;;5073164;28;20047;-58
2024/03/06 07:14:25;;;;;;;1.35;0.70;;;;;;;;;;5073091;28;20066;-58
2024/03/06 07:16:50;;;;;;;0.85;0.50;;;;;;;;;;5067722;28;20032;-58
2024/03/06 07:19:16;;;;;;;0.93;0.50;;;;;;;;;;5076933;28;20044;-59
2024/03/06 07:21:42;;;;;;;1.80;0.95;;;;;;;;;;5084301;28;20487;-58
2024/03/06 07:24:07;;;;;;;0.45;0.40;;;;;;;;;;5085360;28;20076;-58
2024/03/06 07:26:33;;;;;;;1.13;0.60;;;;;;;;;;5073954;28;20086;-58
2024/03/06 07:28:58;;;;;;;3.13;0.70;;;;;;;;;;5074765;28;20035;-56
2024/03/06 07:31:25;;;;;;;3.20;0.65;;;;;;;;;;5073412;28;20055;-52
2024/03/06 07:33:50;;;;;;;1.55;0.70;;;;;;;;;;5077913;28;20501;-51
2024/03/06 07:36:16;;;;;;;1.05;0.60;;;;;;;;;;5077605;28;20134;-55
2024/03/06 07:38:42;;;;;;;1.13;0.60;;;;;;;;;;5084559;28;20123;-53
2024/03/06 07:41:07;;;;;;;1.13;0.65;;;;;;;;;;5085570;28;20494;-53
2024/03/06 07:43:33;;;;;;;0.63;0.47;;;;;;;;;;5087847;28;20054;-49
2024/03/06 07:45:58;;;;;;;1.23;0.60;;;;;;;;;;5074557;28;20089;-52
2024/03/06 07:48:24;;;;;;;1.83;0.73;;;;;;;;;;5075412;28;20101;-52
2024/03/06 07:50:49;;;;;;;1.42;0.52;;;;;;;;;;5082427;28;20609;-53
2024/03/06 07:53:15;;;;;;;1.40;0.60;;;;;;;;;;5075858;28;20115;-53
2024/03/06 07:55:41;;;;;;;1.58;0.80;;;;;;;;;;5078669;28;20071;-54
2024/03/06 07:58:08;;;;;;;0.75;0.52;;;;;;;;;;5076380;28;20453;-52
2024/03/06 08:00:33;;;;;;;2.03;0.73;;;;;;;;;;5075021;28;20048;-58
2024/03/06 08:03:00;;;;;;;2.22;0.75;;;;;;;;;;5060505;28;20037;-57
2024/03/06 08:05:26;;;;;;;3.13;0.80;;;;;;;;;;5068959;28;20460;-58
2024/03/06 08:07:51;;;;;;;1.50;0.55;;;;;;;;;;5083136;28;20038;-59
2024/03/06 08:10:18;;;;;;;2.70;1.00;;;;;;;;;;5074717;28;20078;-59
2024/03/06 08:12:45;;;;;;;1.20;0.70;;;;;;;;;;5081620;28;20029;-59
2024/03/06 08:15:12;;;;;;;3.30;0.70;;;;;;;;;;5073475;28;20051;-53
2024/03/06 08:17:41;;;;;;;1.75;0.70;;;;;;;;;;5074130;28;20040;-52
2024/03/06 08:20:08;;;;;;;1.58;0.65;;;;;;;;;;5081684;28;20494;-53
2024/03/06 08:22:41;;;;;;;1.45;0.70;;;;;;;;;;5079748;28;20036;-56
2024/03/06 08:25:07;;;;;;;1.43;0.70;;;;;;;;;;5074600;28;20036;-56
2024/03/06 08:27:33;;;;;;;4.65;0.70;;;;;;;;;;5082346;28;20032;-52
2024/03/06 08:29:59;;;;;;;1.00;0.60;;;;;;;;;;5081443;28;20063;-55
2024/03/06 08:32:24;;;;;;;1.20;0.57;;;;;;;;;;5076326;28;20113;-55
2024/03/06 08:34:49;;;;;;;3.90;0.70;;;;;;;;;;5072854;28;20119;-54
2024/03/06 08:37:15;;;;;;;1.63;0.70;;;;;;;;;;5072306;28;20115;-53
2024/03/06 08:39:40;;;;;;;4.32;1.00;;;;;;;;;;5084341;28;20090;-54
2024/03/06 08:42:05;;;;;;;1.55;0.60;;;;;;;;;;5077491;28;20371;-52
2024/03/06 08:44:31;;;;;;;1.30;0.70;;;;;;;;;;5077677;28;20523;-51
2024/03/06 08:46:56;;;;;;;1.40;0.60;;;;;;;;;;5076015;28;20029;-55
2024/03/06 08:49:21;;;;;;;1.27;0.65;;;;;;;;;;5077141;28;20023;-53
2024/03/06 08:51:47;;;;;;;2.55;0.70;;;;;;;;;;5082406;28;20044;-55
2024/03/06 08:54:12;;;;;;;3.80;0.80;;;;;;;;;;5087426;28;20054;-55
2024/03/06 08:56:37;;;;;;;1.48;0.88;;;;;;;;;;5081952;28;20032;-51
2024/03/06 08:59:03;;;;;;;2.72;0.90;;;;;;;;;;5077514;28;20044;-51
2024/03/06 09:01:28;;;;;;;1.50;0.98;;;;;;;;;;5076661;28;20036;-53
2024/03/06 09:03:53;;;;;;;1.92;0.63;;;;;;;;;;5076207;28;20097;-52
2024/03/06 09:06:19;;;;;;;1.35;0.63;;;;;;;;;;5079037;28;20089;-59
2024/03/06 09:08:44;;;;;;;1.92;0.60;;;;;;;;;;5078682;28;20032;-58
2024/03/06 09:11:09;;;;;;;2.20;1.10;;;;;;;;;;5075026;28;20036;-59
2024/03/06 09:13:35;;;;;;;2.22;0.70;;;;;;;;;;5084941;28;20048;-58
2024/03/06 09:16:00;;;;;;;1.55;0.68;;;;;;;;;;5090214;28;20039;-58
2024/03/06 09:18:26;;;;;;;1.85;0.70;;;;;;;;;;5086332;28;20648;-55
2024/03/06 09:20:51;;;;;;;2.53;0.88;;;;;;;;;;5087933;28;20043;-54
2024/03/06 09:23:16;;;;;;;6.22;1.00;;;;;;;;;;5086143;28;20584;-50
2024/03/06 09:25:42;;;;;;;3.60;1.30;;;;;;;;;;5084871;28;20035;-52
2024/03/06 09:28:08;;;;;;;3.35;0.82;;;;;;;;;;5079716;28;20625;-53
2024/03/06 09:30:34;;;;;;;2.83;0.65;;;;;;;;;;5079055;28;20078;-53
2024/03/06 09:32:59;;;;;;;2.03;0.88;;;;;;;;;;5075266;28;20036;-52
2024/03/06 09:35:24;;;;;;;3.95;0.90;;;;;;;;;;5077125;28;20060;-54
2024/03/06 09:37:50;;;;;;;2.38;0.80;;;;;;;;;;5079805;28;20064;-51
2024/03/06 09:40:22;;;;;;;2.30;0.70;;;;;;;;;;5077186;28;20041;-54
2024/03/06 09:42:51;;;;;;;5.95;0.90;;;;;;;;;;5073627;28;20036;-54
2024/03/06 09:45:19;;;;;;;4.93;1.13;;;;;;;;;;5043733;28;20039;-59
2024/03/06 09:47:45;;;;;;;3.92;1.08;;;;;;;;;;5071491;28;20558;-61
2024/03/06 09:50:11;;;;;;;3.83;1.02;;;;;;;;;;5073971;28;20039;-61
2024/03/06 09:52:36;;;;;;;3.35;1.10;;;;;;;;;;5066594;28;20047;-59
2024/03/06 09:55:03;;;;;;;1.77;0.88;;;;;;;;;;5068831;28;20449;-60
2024/03/06 09:57:29;;;;;;;1.98;1.00;;;;;;;;;;5076513;28;20445;-60
2024/03/06 09:59:55;;;;;;;3.42;0.95;;;;;;;;;;5077766;28;20047;-60
2024/03/06 10:02:37;;;;;;;2.03;0.68;;;;;;;;;;5072886;28;20028;-61
2024/03/06 10:05:03;;;;;;;5.38;0.98;;;;;;;;;;5074803;28;20036;-59
2024/03/06 10:07:28;;;;;;;2.30;1.10;;;;;;;;;;5070549;28;20090;-60
2024/03/06 10:09:53;;;;;;;2.03;0.80;;;;;;;;;;5072643;28;20032;-59
2024/03/06 10:12:19;;;;;;;2.85;0.80;;;;;;;;;;5078319;28;20452;-60
2024/03/06 10:14:51;;;;;;;5.70;1.17;;;;;;;;;;5087044;28;20558;-60
2024/03/06 10:17:22;;;;;;;1.75;0.80;;;;;;;;;;5087910;28;20035;-60
2024/03/06 10:19:51;;;;;;;2.53;1.25;;;;;;;;;;5081159;28;20101;-60
2024/03/06 10:22:17;;;;;;;3.00;0.90;;;;;;;;;;5068413;28;20100;-60
2024/03/06 10:24:42;;;;;;;2.90;0.80;;;;;;;;;;5074850;28;20119;-60
2024/03/06 10:27:07;;;;;;;4.13;1.40;;;;;;;;;;5075352;28;20094;-60
2024/03/06 10:29:35;;;;;;;3.38;0.98;;;;;;;;;;5074883;28;20093;-60
2024/03/06 10:32:00;;;;;;;1.75;0.77;;;;;;;;;;5048778;28;20472;-58
2024/03/06 10:34:28;;;;;;;1.90;0.73;;;;;;;;;;5073820;28;20042;-59
2024/03/06 10:37:00;;;;;;;2.78;0.90;;;;;;;;;;5082172;28;20040;-60
2024/03/06 10:39:26;;;;;;;2.70;0.90;;;;;;;;;;5081995;28;20044;-59
2024/03/06 10:41:54;;;;;;;2.13;0.90;;;;;;;;;;5081408;28;20029;-60
2024/03/06 10:44:22;;;;;;;1.83;0.80;;;;;;;;;;5076884;28;20021;-60
2024/03/06 10:46:54;;;;;;;1.75;0.95;;;;;;;;;;5067136;28;20036;-61
2024/03/06 10:49:20;;;;;;;3.45;0.90;;;;;;;;;;5075494;28;20040;-58
2024/03/06 10:51:46;;;;;;;2.33;0.90;;;;;;;;;;5081007;28;20529;-60
2024/03/06 10:54:13;;;;;;;2.53;0.90;;;;;;;;;;5070395;28;20446;-60
2024/03/06 10:56:41;;;;;;;1.40;0.70;;;;;;;;;;5074800;28;20486;-61
2024/03/06 10:59:12;;;;;;;3.13;0.80;;;;;;;;;;5070585;28;20048;-60
2024/03/06 11:01:37;;;;;;;1.95;0.80;;;;;;;;;;5081404;28;20085;-60
2024/03/06 11:04:03;;;;;;;2.83;1.00;;;;;;;;;;5069503;28;20033;-61
2024/03/06 11:06:29;;;;;;;2.70;0.90;;;;;;;;;;5072560;28;20036;-60
2024/03/06 11:08:54;;;;;;;2.13;1.00;;;;;;;;;;5067705;28;20546;-60
2024/03/06 11:11:21;;;;;;;4.13;1.00;;;;;;;;;;5069622;28;20097;-59
2024/03/06 11:13:47;;;;;;;2.03;0.90;;;;;;;;;;5069311;28;20468;-59
2024/03/06 11:16:13;;;;;;;2.08;0.82;;;;;;;;;;5081903;28;20388;-60
2024/03/06 11:18:38;;;;;;;1.92;0.80;;;;;;;;;;5083942;28;20039;-59
2024/03/06 11:21:03;;;;;;;2.20;0.90;;;;;;;;;;5066603;28;20040;-60
2024/03/06 11:23:30;;;;;;;3.75;1.13;;;;;;;;;;5062174;28;20048;-60
2024/03/06 11:25:56;;;;;;;2.10;0.90;;;;;;;;;;5071699;28;20135;-59
2024/03/06 11:28:27;;;;;;;2.63;1.35;;;;;;;;;;5075523;28;20577;-59
2024/03/06 11:31:01;;;;;;;2.05;0.90;;;;;;;;;;5083139;28;20040;-60
2024/03/06 11:33:37;;;;;;;2.35;1.00;;;;;;;;;;5068491;28;20039;-60
2024/03/06 11:36:18;;;;;;;1.67;0.77;;;;;;;;;;5075674;28;20040;-61
2024/03/06 11:39:03;;;;;;;2.80;0.90;;;;;;;;;;5074536;28;20050;-60
2024/03/06 11:41:31;;;;;;;2.30;1.00;;;;;;;;;;5065101;28;20452;-59
2024/03/06 11:43:59;;;;;;;1.70;0.88;;;;;;;;;;5081478;28;20518;-60
2024/03/06 11:46:43;;;;;;;2.67;0.85;;;;;;;;;;5075424;28;20024;-60
2024/03/06 11:49:20;;;;;;;2.05;1.00;;;;;;;;;;5064031;28;20045;-60
2024/03/06 11:51:46;;;;;;;2.75;1.00;;;;;;;;;;5070403;28;20020;-61
2024/03/06 11:54:12;;;;;;;1.58;0.88;;;;;;;;;;5077671;28;20044;-61
2024/03/06 11:56:44;;;;;;;2.65;1.50;;;;;;;;;;5077455;28;20123;-59
2024/03/06 11:59:10;;;;;;;1.75;0.80;;;;;;;;;;5085585;28;20052;-60
2024/03/06 12:01:36;;;;;;;3.80;1.10;;;;;;;;;;5086445;28;20495;-59
2024/03/06 12:04:03;;;;;;;2.42;1.00;;;;;;;;;;5070008;28;20039;-60
2024/03/06 12:06:29;;;;;;;2.28;1.00;;;;;;;;;;5070873;28;20467;-60
2024/03/06 12:08:55;;;;;;;2.10;0.80;;;;;;;;;;5064826;28;20047;-60
2024/03/06 12:11:21;;;;;;;2.42;1.20;;;;;;;;;;5078992;28;20036;-61
2024/03/06 12:13:48;;;;;;;2.40;0.95;;;;;;;;;;5083154;28;20036;-60
2024/03/06 12:16:14;;;;;;;2.63;0.90;;;;;;;;;;5081893;28;20036;-60
2024/03/06 12:18:39;;;;;;;1.90;1.00;;;;;;;;;;5082891;28;20039;-60
2024/03/06 12:21:04;;;;;;;2.40;0.90;;;;;;;;;;5077269;28;20108;-59
2024/03/06 12:23:30;;;;;;;2.35;0.95;;;;;;;;;;5083792;28;20048;-59
2024/03/06 12:26:09;;;;;;;2.08;1.00;;;;;;;;;;5079753;28;20037;-59
2024/03/06 12:28:36;;;;;;;1.73;0.90;;;;;;;;;;5088394;28;20052;-60
2024/03/06 12:31:03;;;;;;;2.25;1.00;;;;;;;;;;5075295;28;20024;-59
2024/03/06 12:33:29;;;;;;;1.83;0.90;;;;;;;;;;5085332;28;20035;-60
2024/03/06 12:36:05;;;;;;;2.50;0.90;;;;;;;;;;5081671;28;20047;-61
2024/03/06 12:38:31;;;;;;;1.83;0.93;;;;;;;;;;5062242;28;20048;-60
2024/03/06 12:40:56;;;;;;;2.92;0.90;;;;;;;;;;5068809;28;20036;-61
2024/03/06 12:43:21;;;;;;;1.55;0.90;;;;;;;;;;5074134;28;20904;-59
2024/03/06 12:45:47;;;;;;;2.28;1.10;;;;;;;;;;5083519;28;20056;-60
2024/03/06 12:48:12;;;;;;;3.35;0.93;;;;;;;;;;5077157;28;20112;-58
2024/03/06 12:50:38;;;;;;;2.30;0.98;;;;;;;;;;5070429;28;20036;-60
2024/03/06 12:53:04;;;;;;;2.47;1.00;;;;;;;;;;5077272;28;20044;-60
2024/03/06 12:55:31;;;;;;;2.85;1.08;;;;;;;;;;5081316;28;20039;-60
2024/03/06 12:57:57;;;;;;;3.00;0.77;;;;;;;;;;5071525;28;20031;-59
2024/03/06 13:00:22;;;;;;;2.13;1.10;;;;;;;;;;5079038;28;20048;-60
2024/03/06 13:02:47;;;;;;;2.22;0.90;;;;;;;;;;5081171;28;20552;-59
2024/03/06 13:05:13;;;;;;;2.45;0.90;;;;;;;;;;5074501;28;20032;-60
2024/03/06 13:07:39;;;;;;;2.33;1.05;;;;;;;;;;5074338;28;20082;-60
2024/03/06 13:10:05;;;;;;;2.28;1.00;;;;;;;;;;5074455;28;20040;-59
2024/03/06 13:12:30;;;;;;;2.25;0.82;;;;;;;;;;5074409;28;20035;-60
2024/03/06 13:14:56;;;;;;;1.52;0.80;;;;;;;;;;5070626;28;20028;-60
2024/03/06 13:17:22;;;;;;;2.03;0.80;;;;;;;;;;5076651;28;20032;-60
2024/03/06 13:19:47;;;;;;;1.40;0.70;;;;;;;;;;5070134;28;20029;-60
2024/03/06 13:22:12;;;;;;;2.08;0.90;;;;;;;;;;5074591;28;20043;-60
2024/03/06 13:24:39;;;;;;;3.70;0.80;;;;;;;;;;5067757;28;20040;-59
2024/03/06 13:27:04;;;;;;;1.65;0.80;;;;;;;;;;5082285;28;20032;-59
2024/03/06 13:29:30;;;;;;;3.08;1.10;;;;;;;;;;5077423;28;20035;-59
2024/03/06 13:31:55;;;;;;;2.15;0.93;;;;;;;;;;5074544;28;20033;-59
2024/03/06 13:34:20;;;;;;;3.95;1.10;;;;;;;;;;5065786;28;20036;-60
2024/03/06 13:36:46;;;;;;;2.75;1.05;;;;;;;;;;5074395;28;20054;-58
2024/03/06 13:39:11;;;;;;;5.82;1.20;;;;;;;;;;5066310;28;20055;-60
2024/03/06 13:41:37;;;;;;;1.95;1.00;;;;;;;;;;5066972;28;20048;-60
2024/03/06 13:44:02;;;;;;;3.45;1.02;;;;;;;;;;5067509;28;20058;-60
2024/03/06 13:46:27;;;;;;;1.88;0.80;;;;;;;;;;5067134;28;20045;-60
2024/03/06 13:48:53;;;;;;;1.35;0.80;;;;;;;;;;5067011;28;20120;-60
2024/03/06 13:51:18;;;;;;;4.07;1.10;;;;;;;;;;5073316;28;20044;-60
2024/03/06 13:53:43;;;;;;;2.50;0.88;;;;;;;;;;5083510;28;20499;-59
2024/03/06 13:56:09;;;;;;;3.45;1.08;;;;;;;;;;5085260;28;20486;-59
2024/03/06 13:58:34;;;;;;;2.05;0.82;;;;;;;;;;5072773;28;20555;-61
2024/03/06 14:00:59;;;;;;;1.65;0.80;;;;;;;;;;5074570;28;20044;-59
2024/03/06 14:03:25;;;;;;;2.00;0.90;;;;;;;;;;5080024;28;20048;-59
2024/03/06 14:05:51;;;;;;;1.80;0.73;;;;;;;;;;5085551;28;20089;-60
2024/03/06 14:08:17;;;;;;;1.40;0.70;;;;;;;;;;5077728;28;20440;-59
2024/03/06 14:10:42;;;;;;;2.53;1.00;;;;;;;;;;5084771;28;20497;-60
2024/03/06 14:13:08;;;;;;;3.08;0.90;;;;;;;;;;5075750;28;20119;-60
2024/03/06 14:15:34;;;;;;;4.13;0.90;;;;;;;;;;5074072;28;20035;-59
2024/03/06 14:18:01;;;;;;;1.95;0.82;;;;;;;;;;5073218;28;20502;-60
2024/03/06 14:20:26;;;;;;;2.05;0.82;;;;;;;;;;5072861;28;20548;-60
2024/03/06 14:22:52;;;;;;;2.83;0.95;;;;;;;;;;5071068;28;20036;-59
2024/03/06 14:25:18;;;;;;;2.55;0.82;;;;;;;;;;5069947;28;20368;-60
2024/03/06 14:27:43;;;;;;;2.30;0.80;;;;;;;;;;5071728;28;20063;-60
2024/03/06 14:30:11;;;;;;;2.20;0.95;;;;;;;;;;5068726;28;20048;-59
2024/03/06 14:32:37;;;;;;;2.58;0.80;;;;;;;;;;5076320;28;20047;-59
2024/03/06 14:35:02;;;;;;;2.53;0.88;;;;;;;;;;5076905;28;20460;-59
2024/03/06 14:37:28;;;;;;;2.45;0.75;;;;;;;;;;5072296;28;20051;-59